sensor_id;sensor_type;location;lat;lon;timestamp;temperature;humidity
10864;DHT22;5485;37.558;126.950;2023-04-25T00:00:20;14.20;1.00
10864;DHT22;5485;37.558;126.950;2023-04-25T00:02:47;14.20;1.00
10864;DHT22;5485;37.558;126.950;2023-04-25T00:05:14;14.20;1.00
10864;DHT22;5485;37.558;126.950;2023-04-25T00:07:42;14.30;1.00
10864;DHT22;5485;37.558;126.950;2023-04-25T00:10:09;14.50;1.00
10864;DHT22;5485;37.558;126.950;2023-04-25T00:12:38;14.40;1.00
10864;DHT22;5485;37.558;126.950;2023-04-25T00:15:05;14.40;1.00
10864;DHT22;5485;37.558;126.950;2023-04-25T00:17:32;14.60;1.00
10864;DHT22;5485;37.558;126.950;2023-04-25T00:20:01;14.70;1.00
10864;DHT22;5485;37.558;126.950;2023-04-25T00:22:32;14.60;1.00
10864;DHT22;5485;37.558;126.950;2023-04-25T00:25:00;14.60;1.00
10864;DHT22;5485;37.558;126.950;2023-04-25T00:27:29;14.60;1.00
10864;DHT22;5485;37.558;126.950;2023-04-25T00:29:56;14.60;1.00
10864;DHT22;5485;37.558;126.950;2023-04-25T00:32:23;14.60;1.00
10864;DHT22;5485;37.558;126.950;2023-04-25T00:34:50;14.60;1.00
10864;DHT22;5485;37.558;126.950;2023-04-25T00:37:18;14.70;1.00
10864;DHT22;5485;37.558;126.950;2023-04-25T00:39:50;14.70;1.00
10864;DHT22;5485;37.558;126.950;2023-04-25T00:42:17;14.50;1.00
10864;DHT22;5485;37.558;126.950;2023-04-25T00:44:45;14.50;1.00
10864;DHT22;5485;37.558;126.950;2023-04-25T00:47:13;14.60;1.00
10864;DHT22;5485;37.558;126.950;2023-04-25T00:49:40;14.60;1.00
10864;DHT22;5485;37.558;126.950;2023-04-25T00:52:07;14.90;1.00
10864;DHT22;5485;37.558;126.950;2023-04-25T00:54:40;15.10;1.00
10864;DHT22;5485;37.558;126.950;2023-04-25T00:57:08;15.10;1.00
10864;DHT22;5485;37.558;126.950;2023-04-25T00:59:38;15.30;1.00
10864;DHT22;5485;37.558;126.950;2023-04-25T01:02:08;15.70;1.00
10864;DHT22;5485;37.558;126.950;2023-04-25T01:04:39;15.70;1.00
10864;DHT22;5485;37.558;126.950;2023-04-25T01:07:06;15.50;1.00
10864;DHT22;5485;37.558;126.950;2023-04-25T01:09:34;15.20;1.00
10864;DHT22;5485;37.558;126.950;2023-04-25T01:12:01;15.10;1.00
10864;DHT22;5485;37.558;126.950;2023-04-25T01:14:29;15.00;1.00
10864;DHT22;5485;37.558;126.950;2023-04-25T01:16:56;14.90;1.00
10864;DHT22;5485;37.558;126.950;2023-04-25T01:19:23;14.80;1.00
10864;DHT22;5485;37.558;126.950;2023-04-25T01:21:51;14.60;1.00
10864;DHT22;5485;37.558;126.950;2023-04-25T01:24:18;14.50;1.00
10864;DHT22;5485;37.558;126.950;2023-04-25T01:26:45;14.30;1.00
10864;DHT22;5485;37.558;126.950;2023-04-25T01:29:19;14.00;1.00
10864;DHT22;5485;37.558;126.950;2023-04-25T01:31:47;13.80;1.00
10864;DHT22;5485;37.558;126.950;2023-04-25T01:34:14;13.70;1.00
10864;DHT22;5485;37.558;126.950;2023-04-25T01:36:41;13.40;1.00
10864;DHT22;5485;37.558;126.950;2023-04-25T01:39:08;13.20;1.00
10864;DHT22;5485;37.558;126.950;2023-04-25T01:41:37;13.20;1.00
10864;DHT22;5485;37.558;126.950;2023-04-25T01:44:05;13.00;1.00
10864;DHT22;5485;37.558;126.950;2023-04-25T01:46:34;13.00;1.00
10864;DHT22;5485;37.558;126.950;2023-04-25T01:49:01;13.10;1.00
10864;DHT22;5485;37.558;126.950;2023-04-25T01:51:30;13.20;1.00
10864;DHT22;5485;37.558;126.950;2023-04-25T01:53:58;13.40;1.00
10864;DHT22;5485;37.558;126.950;2023-04-25T01:56:30;13.60;1.00
10864;DHT22;5485;37.558;126.950;2023-04-25T01:59:00;13.80;1.00
10864;DHT22;5485;37.558;126.950;2023-04-25T02:01:27;14.00;1.00
10864;DHT22;5485;37.558;126.950;2023-04-25T02:03:53;14.00;1.00
10864;DHT22;5485;37.558;126.950;2023-04-25T02:06:20;14.20;1.00
10864;DHT22;5485;37.558;126.950;2023-04-25T02:08:48;14.10;1.00
10864;DHT22;5485;37.558;126.950;2023-04-25T02:11:14;13.90;1.00
10864;DHT22;5485;37.558;126.950;2023-04-25T02:13:43;14.10;1.00
10864;DHT22;5485;37.558;126.950;2023-04-25T02:16:09;14.10;1.00
10864;DHT22;5485;37.558;126.950;2023-04-25T02:18:37;14.10;1.00
10864;DHT22;5485;37.558;126.950;2023-04-25T02:21:04;14.10;1.00
10864;DHT22;5485;37.558;126.950;2023-04-25T02:23:31;14.00;1.00
10864;DHT22;5485;37.558;126.950;2023-04-25T02:25:57;14.00;1.00
10864;DHT22;5485;37.558;126.950;2023-04-25T02:28:25;13.90;1.00
10864;DHT22;5485;37.558;126.950;2023-04-25T02:30:52;13.80;1.00
10864;DHT22;5485;37.558;126.950;2023-04-25T02:33:19;13.80;1.00
10864;DHT22;5485;37.558;126.950;2023-04-25T02:35:47;13.80;1.00
10864;DHT22;5485;37.558;126.950;2023-04-25T02:38:14;13.80;1.00
10864;DHT22;5485;37.558;126.950;2023-04-25T02:40:41;13.60;1.00
10864;DHT22;5485;37.558;126.950;2023-04-25T02:43:08;13.60;1.00
10864;DHT22;5485;37.558;126.950;2023-04-25T02:45:37;13.50;1.00
10864;DHT22;5485;37.558;126.950;2023-04-25T02:48:04;13.50;1.00
10864;DHT22;5485;37.558;126.950;2023-04-25T02:50:31;13.40;1.00
10864;DHT22;5485;37.558;126.950;2023-04-25T02:52:59;13.50;1.00
10864;DHT22;5485;37.558;126.950;2023-04-25T02:55:29;13.60;1.00
10864;DHT22;5485;37.558;126.950;2023-04-25T02:57:56;13.60;1.00
10864;DHT22;5485;37.558;126.950;2023-04-25T03:00:23;13.50;1.00
10864;DHT22;5485;37.558;126.950;2023-04-25T03:02:50;13.60;1.00
10864;DHT22;5485;37.558;126.950;2023-04-25T03:05:17;13.60;1.00
10864;DHT22;5485;37.558;126.950;2023-04-25T03:07:44;13.50;1.00
10864;DHT22;5485;37.558;126.950;2023-04-25T03:10:12;13.50;1.00
10864;DHT22;5485;37.558;126.950;2023-04-25T03:12:38;13.60;1.00
10864;DHT22;5485;37.558;126.950;2023-04-25T03:15:06;13.60;1.00
10864;DHT22;5485;37.558;126.950;2023-04-25T03:17:34;13.60;1.00
10864;DHT22;5485;37.558;126.950;2023-04-25T03:20:01;13.50;1.00
10864;DHT22;5485;37.558;126.950;2023-04-25T03:22:31;13.80;1.00
10864;DHT22;5485;37.558;126.950;2023-04-25T03:24:58;14.00;1.00
10864;DHT22;5485;37.558;126.950;2023-04-25T03:27:25;14.00;1.00
10864;DHT22;5485;37.558;126.950;2023-04-25T03:29:52;14.00;1.00
10864;DHT22;5485;37.558;126.950;2023-04-25T03:32:19;13.80;1.00
10864;DHT22;5485;37.558;126.950;2023-04-25T03:34:46;13.80;1.00
10864;DHT22;5485;37.558;126.950;2023-04-25T03:37:12;13.80;1.00
10864;DHT22;5485;37.558;126.950;2023-04-25T03:39:39;13.80;1.00
10864;DHT22;5485;37.558;126.950;2023-04-25T03:42:15;13.80;1.00
10864;DHT22;5485;37.558;126.950;2023-04-25T03:44:42;13.70;1.00
10864;DHT22;5485;37.558;126.950;2023-04-25T03:47:09;13.50;1.00
10864;DHT22;5485;37.558;126.950;2023-04-25T03:49:36;13.50;1.00
10864;DHT22;5485;37.558;126.950;2023-04-25T03:52:03;13.50;1.00
10864;DHT22;5485;37.558;126.950;2023-04-25T03:54:30;13.40;1.00
10864;DHT22;5485;37.558;126.950;2023-04-25T03:56:57;13.30;1.00
10864;DHT22;5485;37.558;126.950;2023-04-25T03:59:26;13.30;1.00
10864;DHT22;5485;37.558;126.950;2023-04-25T04:01:53;13.30;1.00
10864;DHT22;5485;37.558;126.950;2023-04-25T04:04:20;13.40;1.00
10864;DHT22;5485;37.558;126.950;2023-04-25T04:06:50;13.60;1.00
10864;DHT22;5485;37.558;126.950;2023-04-25T04:09:18;13.80;1.00
10864;DHT22;5485;37.558;126.950;2023-04-25T04:11:46;14.00;1.00
10864;DHT22;5485;37.558;126.950;2023-04-25T04:14:13;14.00;1.00
10864;DHT22;5485;37.558;126.950;2023-04-25T04:16:40;14.10;1.00
10864;DHT22;5485;37.558;126.950;2023-04-25T04:19:07;14.10;1.00
10864;DHT22;5485;37.558;126.950;2023-04-25T04:21:34;14.10;1.00
10864;DHT22;5485;37.558;126.950;2023-04-25T04:24:03;14.00;1.00
10864;DHT22;5485;37.558;126.950;2023-04-25T04:26:32;14.00;1.00
10864;DHT22;5485;37.558;126.950;2023-04-25T04:29:00;13.70;1.00
10864;DHT22;5485;37.558;126.950;2023-04-25T04:31:27;13.50;1.00
10864;DHT22;5485;37.558;126.950;2023-04-25T04:34:00;13.70;1.00
10864;DHT22;5485;37.558;126.950;2023-04-25T04:36:31;13.60;1.00
10864;DHT22;5485;37.558;126.950;2023-04-25T04:38:58;13.50;1.00
10864;DHT22;5485;37.558;126.950;2023-04-25T04:41:25;13.30;1.00
10864;DHT22;5485;37.558;126.950;2023-04-25T04:43:55;13.20;1.00
10864;DHT22;5485;37.558;126.950;2023-04-25T04:46:22;13.10;1.00
10864;DHT22;5485;37.558;126.950;2023-04-25T04:48:50;13.00;1.00
10864;DHT22;5485;37.558;126.950;2023-04-25T04:51:19;13.10;1.00
10864;DHT22;5485;37.558;126.950;2023-04-25T04:53:47;13.00;1.00
10864;DHT22;5485;37.558;126.950;2023-04-25T04:56:14;13.00;1.00
10864;DHT22;5485;37.558;126.950;2023-04-25T04:58:41;13.00;1.00
10864;DHT22;5485;37.558;126.950;2023-04-25T05:01:08;13.00;1.00
10864;DHT22;5485;37.558;126.950;2023-04-25T05:03:35;13.00;1.00
10864;DHT22;5485;37.558;126.950;2023-04-25T05:06:01;13.10;1.00
10864;DHT22;5485;37.558;126.950;2023-04-25T05:08:28;13.30;1.00
10864;DHT22;5485;37.558;126.950;2023-04-25T05:10:55;13.30;1.00
10864;DHT22;5485;37.558;126.950;2023-04-25T05:13:22;13.50;1.00
10864;DHT22;5485;37.558;126.950;2023-04-25T05:15:49;13.50;1.00
10864;DHT22;5485;37.558;126.950;2023-04-25T05:18:16;13.60;1.00
10864;DHT22;5485;37.558;126.950;2023-04-25T05:20:45;13.50;1.00
10864;DHT22;5485;37.558;126.950;2023-04-25T05:23:12;13.60;1.00
10864;DHT22;5485;37.558;126.950;2023-04-25T05:25:39;13.70;1.00
10864;DHT22;5485;37.558;126.950;2023-04-25T05:28:09;13.60;1.00
10864;DHT22;5485;37.558;126.950;2023-04-25T05:30:35;13.60;1.00
10864;DHT22;5485;37.558;126.950;2023-04-25T05:33:02;13.60;1.00
10864;DHT22;5485;37.558;126.950;2023-04-25T05:35:31;13.70;1.00
10864;DHT22;5485;37.558;126.950;2023-04-25T05:37:58;13.70;1.00
10864;DHT22;5485;37.558;126.950;2023-04-25T05:40:25;13.50;1.00
10864;DHT22;5485;37.558;126.950;2023-04-25T05:42:51;13.30;1.00
10864;DHT22;5485;37.558;126.950;2023-04-25T05:45:18;13.30;1.00
10864;DHT22;5485;37.558;126.950;2023-04-25T05:47:45;13.20;1.00
10864;DHT22;5485;37.558;126.950;2023-04-25T05:50:15;13.20;1.00
10864;DHT22;5485;37.558;126.950;2023-04-25T05:52:42;13.10;1.00
10864;DHT22;5485;37.558;126.950;2023-04-25T05:55:09;12.90;1.00
10864;DHT22;5485;37.558;126.950;2023-04-25T05:57:36;12.80;1.00
10864;DHT22;5485;37.558;126.950;2023-04-25T06:00:03;12.80;1.00
10864;DHT22;5485;37.558;126.950;2023-04-25T06:02:35;12.60;1.00
10864;DHT22;5485;37.558;126.950;2023-04-25T06:05:02;12.60;1.00
10864;DHT22;5485;37.558;126.950;2023-04-25T06:07:29;12.50;1.00
10864;DHT22;5485;37.558;126.950;2023-04-25T06:09:57;12.40;1.00
10864;DHT22;5485;37.558;126.950;2023-04-25T06:12:24;12.40;1.00
10864;DHT22;5485;37.558;126.950;2023-04-25T06:14:51;12.30;1.00
10864;DHT22;5485;37.558;126.950;2023-04-25T06:17:17;12.30;1.00
10864;DHT22;5485;37.558;126.950;2023-04-25T06:19:44;12.30;1.00
10864;DHT22;5485;37.558;126.950;2023-04-25T06:22:11;12.30;1.00
10864;DHT22;5485;37.558;126.950;2023-04-25T06:24:38;12.30;1.00
10864;DHT22;5485;37.558;126.950;2023-04-25T06:27:05;12.40;1.00
10864;DHT22;5485;37.558;126.950;2023-04-25T06:29:32;12.50;1.00
10864;DHT22;5485;37.558;126.950;2023-04-25T06:31:58;12.60;1.00
10864;DHT22;5485;37.558;126.950;2023-04-25T06:34:25;12.50;1.00
10864;DHT22;5485;37.558;126.950;2023-04-25T06:36:52;12.50;1.00
10864;DHT22;5485;37.558;126.950;2023-04-25T06:39:19;12.50;1.00
10864;DHT22;5485;37.558;126.950;2023-04-25T06:41:48;12.60;1.00
10864;DHT22;5485;37.558;126.950;2023-04-25T06:44:15;12.80;1.00
10864;DHT22;5485;37.558;126.950;2023-04-25T06:46:42;12.80;1.00
10864;DHT22;5485;37.558;126.950;2023-04-25T06:49:09;12.90;1.00
10864;DHT22;5485;37.558;126.950;2023-04-25T06:51:37;12.80;1.00
10864;DHT22;5485;37.558;126.950;2023-04-25T06:54:08;12.80;1.00
10864;DHT22;5485;37.558;126.950;2023-04-25T06:56:38;12.70;1.00
10864;DHT22;5485;37.558;126.950;2023-04-25T06:59:05;12.60;1.00
10864;DHT22;5485;37.558;126.950;2023-04-25T07:01:32;12.50;1.00
10864;DHT22;5485;37.558;126.950;2023-04-25T07:03:59;12.40;1.00
10864;DHT22;5485;37.558;126.950;2023-04-25T07:06:26;12.50;1.00
10864;DHT22;5485;37.558;126.950;2023-04-25T07:08:54;12.50;1.00
10864;DHT22;5485;37.558;126.950;2023-04-25T07:11:21;12.40;1.00
10864;DHT22;5485;37.558;126.950;2023-04-25T07:13:48;12.30;1.00
10864;DHT22;5485;37.558;126.950;2023-04-25T07:16:16;12.20;1.00
10864;DHT22;5485;37.558;126.950;2023-04-25T07:18:43;12.20;1.00
10864;DHT22;5485;37.558;126.950;2023-04-25T07:21:10;12.10;1.00
10864;DHT22;5485;37.558;126.950;2023-04-25T07:23:39;12.00;1.00
10864;DHT22;5485;37.558;126.950;2023-04-25T07:26:08;12.00;1.00
10864;DHT22;5485;37.558;126.950;2023-04-25T07:28:35;12.00;1.00
10864;DHT22;5485;37.558;126.950;2023-04-25T07:31:02;11.90;1.00
10864;DHT22;5485;37.558;126.950;2023-04-25T07:33:29;11.90;1.00
10864;DHT22;5485;37.558;126.950;2023-04-25T07:35:56;11.90;1.00
10864;DHT22;5485;37.558;126.950;2023-04-25T07:38:23;11.90;1.00
10864;DHT22;5485;37.558;126.950;2023-04-25T07:40:51;11.90;1.00
10864;DHT22;5485;37.558;126.950;2023-04-25T07:43:18;11.90;1.00
10864;DHT22;5485;37.558;126.950;2023-04-25T07:45:46;11.90;1.00
10864;DHT22;5485;37.558;126.950;2023-04-25T07:48:21;11.90;1.00
10864;DHT22;5485;37.558;126.950;2023-04-25T07:50:48;11.90;1.00
10864;DHT22;5485;37.558;126.950;2023-04-25T07:53:19;12.00;1.00
10864;DHT22;5485;37.558;126.950;2023-04-25T07:55:46;12.10;1.00
10864;DHT22;5485;37.558;126.950;2023-04-25T07:58:13;12.20;1.00
10864;DHT22;5485;37.558;126.950;2023-04-25T08:00:41;12.10;1.00
10864;DHT22;5485;37.558;126.950;2023-04-25T08:03:09;12.10;1.00
10864;DHT22;5485;37.558;126.950;2023-04-25T08:05:36;12.20;1.00
10864;DHT22;5485;37.558;126.950;2023-04-25T08:08:08;12.30;1.00
10864;DHT22;5485;37.558;126.950;2023-04-25T08:10:35;12.30;1.00
10864;DHT22;5485;37.558;126.950;2023-04-25T08:13:03;12.30;1.00
10864;DHT22;5485;37.558;126.950;2023-04-25T08:15:34;12.30;1.00
10864;DHT22;5485;37.558;126.950;2023-04-25T08:18:01;12.30;1.00
10864;DHT22;5485;37.558;126.950;2023-04-25T08:20:28;12.20;1.00
10864;DHT22;5485;37.558;126.950;2023-04-25T08:22:55;12.10;1.00
10864;DHT22;5485;37.558;126.950;2023-04-25T08:25:25;12.00;1.00
10864;DHT22;5485;37.558;126.950;2023-04-25T08:27:52;11.90;1.00
10864;DHT22;5485;37.558;126.950;2023-04-25T08:30:19;11.80;1.00
10864;DHT22;5485;37.558;126.950;2023-04-25T08:32:45;11.80;1.00
10864;DHT22;5485;37.558;126.950;2023-04-25T08:35:12;11.80;1.00
10864;DHT22;5485;37.558;126.950;2023-04-25T08:37:39;11.80;1.00
10864;DHT22;5485;37.558;126.950;2023-04-25T08:40:07;11.80;1.00
10864;DHT22;5485;37.558;126.950;2023-04-25T08:42:38;11.80;1.00
10864;DHT22;5485;37.558;126.950;2023-04-25T08:45:08;11.70;1.00
10864;DHT22;5485;37.558;126.950;2023-04-25T08:47:38;11.70;1.00
10864;DHT22;5485;37.558;126.950;2023-04-25T08:50:08;11.70;1.00
10864;DHT22;5485;37.558;126.950;2023-04-25T08:52:43;11.60;1.00
10864;DHT22;5485;37.558;126.950;2023-04-25T08:55:12;11.50;1.00
10864;DHT22;5485;37.558;126.950;2023-04-25T08:57:45;11.50;1.00
10864;DHT22;5485;37.558;126.950;2023-04-25T09:00:12;11.50;1.00
10864;DHT22;5485;37.558;126.950;2023-04-25T09:02:42;11.50;1.00
10864;DHT22;5485;37.558;126.950;2023-04-25T09:05:13;11.50;1.00
10864;DHT22;5485;37.558;126.950;2023-04-25T09:07:40;11.60;1.00
10864;DHT22;5485;37.558;126.950;2023-04-25T09:10:07;11.60;1.00
10864;DHT22;5485;37.558;126.950;2023-04-25T09:12:35;11.60;1.00
10864;DHT22;5485;37.558;126.950;2023-04-25T09:15:11;11.50;1.00
10864;DHT22;5485;37.558;126.950;2023-04-25T09:17:41;11.50;1.00
10864;DHT22;5485;37.558;126.950;2023-04-25T09:20:09;11.40;1.00
10864;DHT22;5485;37.558;126.950;2023-04-25T09:22:38;11.30;1.00
10864;DHT22;5485;37.558;126.950;2023-04-25T09:25:09;11.40;1.00
10864;DHT22;5485;37.558;126.950;2023-04-25T09:27:42;11.40;1.00
10864;DHT22;5485;37.558;126.950;2023-04-25T09:30:16;11.40;1.00
10864;DHT22;5485;37.558;126.950;2023-04-25T09:32:44;11.40;1.00
10864;DHT22;5485;37.558;126.950;2023-04-25T09:35:24;11.40;1.00
10864;DHT22;5485;37.558;126.950;2023-04-25T09:37:52;11.40;1.00
10864;DHT22;5485;37.558;126.950;2023-04-25T09:40:19;11.30;1.00
10864;DHT22;5485;37.558;126.950;2023-04-25T09:42:49;11.40;1.00
10864;DHT22;5485;37.558;126.950;2023-04-25T09:45:16;11.40;1.00
10864;DHT22;5485;37.558;126.950;2023-04-25T09:47:43;11.30;1.00
10864;DHT22;5485;37.558;126.950;2023-04-25T09:50:17;11.40;1.00
10864;DHT22;5485;37.558;126.950;2023-04-25T09:53:11;11.20;1.00
10864;DHT22;5485;37.558;126.950;2023-04-25T09:55:38;11.20;1.00
10864;DHT22;5485;37.558;126.950;2023-04-25T09:58:06;11.10;1.00
10864;DHT22;5485;37.558;126.950;2023-04-25T10:00:35;11.00;1.00
10864;DHT22;5485;37.558;126.950;2023-04-25T10:03:02;11.00;7.30
10864;DHT22;5485;37.558;126.950;2023-04-25T10:05:32;10.90;16.70
10864;DHT22;5485;37.558;126.950;2023-04-25T10:08:04;10.80;24.30
10864;DHT22;5485;37.558;126.950;2023-04-25T10:10:32;10.80;35.60
10864;DHT22;5485;37.558;126.950;2023-04-25T10:13:07;10.80;57.70
10864;DHT22;5485;37.558;126.950;2023-04-25T10:15:37;10.70;57.60
10864;DHT22;5485;37.558;126.950;2023-04-25T10:18:05;10.70;58.10
10864;DHT22;5485;37.558;126.950;2023-04-25T10:20:33;10.70;57.60
10864;DHT22;5485;37.558;126.950;2023-04-25T10:23:10;10.70;57.60
10864;DHT22;5485;37.558;126.950;2023-04-25T10:25:38;10.70;57.60
10864;DHT22;5485;37.558;126.950;2023-04-25T10:28:05;10.70;57.60
10864;DHT22;5485;37.558;126.950;2023-04-25T10:30:35;10.70;57.70
10864;DHT22;5485;37.558;126.950;2023-04-25T10:33:22;10.70;58.00
10864;DHT22;5485;37.558;126.950;2023-04-25T10:36:08;10.70;85.60
10864;DHT22;5485;37.558;126.950;2023-04-25T10:38:36;10.60;82.90
10864;DHT22;5485;37.558;126.950;2023-04-25T10:41:10;10.60;88.00
10864;DHT22;5485;37.558;126.950;2023-04-25T10:43:43;10.60;91.40
10864;DHT22;5485;37.558;126.950;2023-04-25T10:46:29;10.60;94.10
10864;DHT22;5485;37.558;126.950;2023-04-25T10:49:01;10.60;99.00
10864;DHT22;5485;37.558;126.950;2023-04-25T10:51:29;10.60;99.90
10864;DHT22;5485;37.558;126.950;2023-04-25T10:56:29;10.60;99.90
10864;DHT22;5485;37.558;126.950;2023-04-25T10:59:15;10.50;99.90
10864;DHT22;5485;37.558;126.950;2023-04-25T11:01:46;10.50;99.90
10864;DHT22;5485;37.558;126.950;2023-04-25T11:04:30;10.50;99.90
10864;DHT22;5485;37.558;126.950;2023-04-25T11:09:30;10.40;99.90
10864;DHT22;5485;37.558;126.950;2023-04-25T11:11:58;10.40;99.90
10864;DHT22;5485;37.558;126.950;2023-04-25T11:14:25;10.30;99.90
10864;DHT22;5485;37.558;126.950;2023-04-25T11:16:57;10.20;96.50
10864;DHT22;5485;37.558;126.950;2023-04-25T11:19:25;10.20;97.90
10864;DHT22;5485;37.558;126.950;2023-04-25T11:22:01;10.20;95.70
10864;DHT22;5485;37.558;126.950;2023-04-25T11:27:01;10.20;99.00
10864;DHT22;5485;37.558;126.950;2023-04-25T11:29:30;10.20;99.90
10864;DHT22;5485;37.558;126.950;2023-04-25T11:31:57;10.20;99.90
10864;DHT22;5485;37.558;126.950;2023-04-25T11:34:27;10.20;99.90
10864;DHT22;5485;37.558;126.950;2023-04-25T11:36:57;10.20;99.90
10864;DHT22;5485;37.558;126.950;2023-04-25T11:39:24;10.20;99.90
10864;DHT22;5485;37.558;126.950;2023-04-25T11:41:52;10.20;99.90
10864;DHT22;5485;37.558;126.950;2023-04-25T11:44:21;10.20;99.90
10864;DHT22;5485;37.558;126.950;2023-04-25T11:46:48;10.20;99.90
10864;DHT22;5485;37.558;126.950;2023-04-25T11:49:15;10.20;99.90
10864;DHT22;5485;37.558;126.950;2023-04-25T11:51:46;10.30;99.90
10864;DHT22;5485;37.558;126.950;2023-04-25T11:54:16;10.30;99.90
10864;DHT22;5485;37.558;126.950;2023-04-25T11:56:43;10.30;99.90
10864;DHT22;5485;37.558;126.950;2023-04-25T11:59:12;10.20;99.90
10864;DHT22;5485;37.558;126.950;2023-04-25T12:01:40;10.20;99.90
10864;DHT22;5485;37.558;126.950;2023-04-25T12:06:45;10.20;99.90
10864;DHT22;5485;37.558;126.950;2023-04-25T12:09:15;10.20;99.90
10864;DHT22;5485;37.558;126.950;2023-04-25T12:11:59;10.20;99.90
10864;DHT22;5485;37.558;126.950;2023-04-25T12:14:35;10.20;99.90
10864;DHT22;5485;37.558;126.950;2023-04-25T12:17:05;10.20;99.90
10864;DHT22;5485;37.558;126.950;2023-04-25T12:19:35;10.20;99.90
10864;DHT22;5485;37.558;126.950;2023-04-25T12:22:03;10.20;99.90
10864;DHT22;5485;37.558;126.950;2023-04-25T12:24:33;10.30;98.00
10864;DHT22;5485;37.558;126.950;2023-04-25T12:27:07;10.30;96.50
10864;DHT22;5485;37.558;126.950;2023-04-25T12:29:36;10.30;92.80
10864;DHT22;5485;37.558;126.950;2023-04-25T12:32:05;10.30;90.10
10864;DHT22;5485;37.558;126.950;2023-04-25T12:34:32;10.30;94.10
10864;DHT22;5485;37.558;126.950;2023-04-25T12:37:01;10.30;95.80
10864;DHT22;5485;37.558;126.950;2023-04-25T12:39:28;10.30;95.30
10864;DHT22;5485;37.558;126.950;2023-04-25T12:41:57;10.30;93.40
10864;DHT22;5485;37.558;126.950;2023-04-25T12:44:25;10.20;96.30
10864;DHT22;5485;37.558;126.950;2023-04-25T12:46:52;10.20;99.90
10864;DHT22;5485;37.558;126.950;2023-04-25T12:49:20;10.10;99.90
10864;DHT22;5485;37.558;126.950;2023-04-25T12:51:47;10.00;99.90
10864;DHT22;5485;37.558;126.950;2023-04-25T12:54:14;10.00;99.90
10864;DHT22;5485;37.558;126.950;2023-04-25T12:56:41;9.90;99.90
10864;DHT22;5485;37.558;126.950;2023-04-25T12:59:08;9.90;99.90
10864;DHT22;5485;37.558;126.950;2023-04-25T13:01:38;9.90;99.90
10864;DHT22;5485;37.558;126.950;2023-04-25T13:04:05;9.80;99.90
10864;DHT22;5485;37.558;126.950;2023-04-25T13:06:34;9.80;99.90
10864;DHT22;5485;37.558;126.950;2023-04-25T13:09:00;9.70;99.90
10864;DHT22;5485;37.558;126.950;2023-04-25T13:11:28;9.70;99.90
10864;DHT22;5485;37.558;126.950;2023-04-25T13:13:55;9.70;99.90
10864;DHT22;5485;37.558;126.950;2023-04-25T13:16:22;9.60;99.90
10864;DHT22;5485;37.558;126.950;2023-04-25T13:18:49;9.60;99.90
10864;DHT22;5485;37.558;126.950;2023-04-25T13:21:16;9.60;99.90
10864;DHT22;5485;37.558;126.950;2023-04-25T13:23:42;9.60;99.90
10864;DHT22;5485;37.558;126.950;2023-04-25T13:26:10;9.60;99.90
10864;DHT22;5485;37.558;126.950;2023-04-25T13:28:37;9.60;99.90
10864;DHT22;5485;37.558;126.950;2023-04-25T13:31:05;9.60;99.90
10864;DHT22;5485;37.558;126.950;2023-04-25T13:33:32;9.60;99.90
10864;DHT22;5485;37.558;126.950;2023-04-25T13:36:01;9.60;99.90
10864;DHT22;5485;37.558;126.950;2023-04-25T13:38:28;9.60;99.90
10864;DHT22;5485;37.558;126.950;2023-04-25T13:40:55;9.60;99.90
10864;DHT22;5485;37.558;126.950;2023-04-25T13:43:22;9.60;99.90
10864;DHT22;5485;37.558;126.950;2023-04-25T13:45:56;9.60;99.90
10864;DHT22;5485;37.558;126.950;2023-04-25T13:48:23;9.70;99.90
10864;DHT22;5485;37.558;126.950;2023-04-25T13:50:50;9.60;99.90
10864;DHT22;5485;37.558;126.950;2023-04-25T13:53:17;9.60;99.90
10864;DHT22;5485;37.558;126.950;2023-04-25T13:55:44;9.60;99.90
10864;DHT22;5485;37.558;126.950;2023-04-25T13:58:11;9.50;99.90
10864;DHT22;5485;37.558;126.950;2023-04-25T14:00:39;9.60;99.90
10864;DHT22;5485;37.558;126.950;2023-04-25T14:03:09;9.50;99.90
10864;DHT22;5485;37.558;126.950;2023-04-25T14:05:36;9.50;99.90
10864;DHT22;5485;37.558;126.950;2023-04-25T14:08:08;9.50;99.90
10864;DHT22;5485;37.558;126.950;2023-04-25T14:10:35;9.50;99.90
10864;DHT22;5485;37.558;126.950;2023-04-25T14:13:02;9.50;99.90
10864;DHT22;5485;37.558;126.950;2023-04-25T14:15:31;9.50;99.90
10864;DHT22;5485;37.558;126.950;2023-04-25T14:17:59;9.60;99.90
10864;DHT22;5485;37.558;126.950;2023-04-25T14:20:26;9.60;99.90
10864;DHT22;5485;37.558;126.950;2023-04-25T14:22:53;9.60;99.90
10864;DHT22;5485;37.558;126.950;2023-04-25T14:25:22;9.60;99.90
10864;DHT22;5485;37.558;126.950;2023-04-25T14:27:49;9.60;99.90
10864;DHT22;5485;37.558;126.950;2023-04-25T14:30:18;9.60;99.90
10864;DHT22;5485;37.558;126.950;2023-04-25T14:32:45;9.60;99.90
10864;DHT22;5485;37.558;126.950;2023-04-25T14:35:12;9.60;99.90
10864;DHT22;5485;37.558;126.950;2023-04-25T14:37:39;9.60;99.90
10864;DHT22;5485;37.558;126.950;2023-04-25T14:40:07;9.60;99.90
10864;DHT22;5485;37.558;126.950;2023-04-25T14:42:39;9.60;99.90
10864;DHT22;5485;37.558;126.950;2023-04-25T14:45:08;9.60;99.90
10864;DHT22;5485;37.558;126.950;2023-04-25T14:47:38;9.70;99.90
10864;DHT22;5485;37.558;126.950;2023-04-25T14:50:06;9.70;99.90
10864;DHT22;5485;37.558;126.950;2023-04-25T14:52:33;9.70;99.90
10864;DHT22;5485;37.558;126.950;2023-04-25T14:55:00;9.80;99.90
10864;DHT22;5485;37.558;126.950;2023-04-25T14:57:34;9.80;99.90
10864;DHT22;5485;37.558;126.950;2023-04-25T15:00:02;9.90;99.90
10864;DHT22;5485;37.558;126.950;2023-04-25T15:02:31;9.90;99.90
10864;DHT22;5485;37.558;126.950;2023-04-25T15:04:58;10.00;99.90
10864;DHT22;5485;37.558;126.950;2023-04-25T15:07:24;9.90;99.90
10864;DHT22;5485;37.558;126.950;2023-04-25T15:09:55;9.90;99.90
10864;DHT22;5485;37.558;126.950;2023-04-25T15:12:22;9.90;99.90
10864;DHT22;5485;37.558;126.950;2023-04-25T15:14:52;9.90;99.90
10864;DHT22;5485;37.558;126.950;2023-04-25T15:17:19;9.90;99.90
10864;DHT22;5485;37.558;126.950;2023-04-25T15:19:46;10.00;99.90
10864;DHT22;5485;37.558;126.950;2023-04-25T15:22:13;10.00;99.90
10864;DHT22;5485;37.558;126.950;2023-04-25T15:24:40;10.10;99.90
10864;DHT22;5485;37.558;126.950;2023-04-25T15:27:07;10.10;99.90
10864;DHT22;5485;37.558;126.950;2023-04-25T15:29:36;10.10;99.90
10864;DHT22;5485;37.558;126.950;2023-04-25T15:32:04;10.20;99.90
10864;DHT22;5485;37.558;126.950;2023-04-25T15:34:31;10.20;99.90
10864;DHT22;5485;37.558;126.950;2023-04-25T15:36:57;10.20;99.90
10864;DHT22;5485;37.558;126.950;2023-04-25T15:39:27;10.20;99.90
10864;DHT22;5485;37.558;126.950;2023-04-25T15:41:54;10.20;99.90
10864;DHT22;5485;37.558;126.950;2023-04-25T15:44:21;10.20;99.90